createdAt,value
2023-01-17T00:23:51.711Z,82.1
2023-01-17T00:53:51.710Z,80.86
2023-01-17T01:23:51.712Z,80.28
2023-01-17T01:53:51.719Z,79.12
2023-01-17T02:23:51.726Z,78.2
2023-01-17T02:53:51.743Z,78.08
2023-01-17T03:23:51.737Z,77.71
2023-01-17T03:53:51.725Z,77.16
2023-01-17T04:23:51.743Z,76.53
2023-01-17T04:53:51.740Z,76.32
2023-01-17T05:23:51.764Z,76.68
2023-01-17T05:53:51.767Z,77.32
2023-01-17T06:23:51.775Z,78.06
2023-01-17T06:53:51.798Z,78.71
2023-01-17T07:23:51.790Z,78.8
2023-01-17T07:53:51.789Z,79.36
2023-01-17T08:23:51.810Z,79.5
2023-01-17T08:53:51.799Z,78.61
2023-01-17T09:23:51.799Z,78.31
2023-01-17T09:53:51.799Z,77.83
2023-01-17T10:23:51.809Z,77.52
2023-01-17T10:53:51.795Z,77.06
2023-01-17T11:23:51.824Z,75.93
2023-01-17T11:53:51.822Z,74.95
2023-01-17T12:23:51.838Z,75.31
2023-01-17T12:53:51.828Z,74.81
2023-01-17T13:23:51.836Z,73.15
2023-01-17T13:53:51.851Z,73.01
2023-01-17T14:23:51.838Z,72.43
2023-01-17T14:53:51.851Z,72.78
2023-01-17T15:23:51.865Z,72.6
2023-01-17T15:53:51.863Z,72.38
2023-01-17T16:23:51.878Z,73.04
2023-01-17T16:53:51.875Z,72.82
2023-01-17T17:23:51.879Z,73.53
2023-01-17T17:53:51.885Z,73.52
2023-01-17T18:23:51.919Z,73.59
2023-01-17T18:53:51.976Z,73.74
2023-01-17T19:23:51.892Z,73.88
2023-01-17T19:53:51.895Z,74.14
2023-01-17T20:23:51.909Z,74.34
2023-01-17T20:53:51.912Z,74.6
2023-01-17T21:23:51.918Z,74.68
2023-01-17T21:53:51.913Z,74.37
2023-01-17T22:23:51.916Z,74.27
2023-01-17T22:53:51.913Z,74.27
2023-01-17T23:23:51.937Z,74.37
2023-01-17T23:53:51.955Z,74.24
